Time;durP1;ratioP1;P1;durP2;ratioP2;P2;SDS_P1;SDS_P2;PMS_P1;PMS_P2;Temp;Humidity;BMP_temperature;BMP_pressure;BME280_temperature;BME280_humidity;BME280_pressure;Samples;Min_cycle;Max_cycle;Signal;HPM_P1;HPM_P2
2021/12/08 00:01:29;1155219.00;3.85;2009.46;119691.00;0.40;207.55;;;;;8.30;1.00;;;;;;2280565;60;1395;-88
2021/12/08 00:03:57;1424279.00;4.75;2501.43;103360.00;0.34;179.37;;;;;8.40;1.00;;;;;;2280647;60;1028;-88
2021/12/08 00:06:24;527153.00;1.76;908.59;0.00;0.00;0.62;;;;;8.60;1.00;;;;;;2276773;61;974;-88
2021/12/08 00:09:04;518656.00;1.73;893.95;0.00;0.00;0.62;;;;;8.50;1.00;;;;;;2276787;61;1051;-88
2021/12/08 00:14:16;522599.00;1.74;900.74;0.00;0.00;0.62;;;;;9.10;1.00;;;;;;2280563;60;887;-88
2021/12/08 00:16:43;822554.00;2.74;1420.49;0.00;0.00;0.62;;;;;9.10;1.00;;;;;;2276673;60;1162;-88
2021/12/08 00:19:12;2045633.00;6.82;3718.45;267059.00;0.89;461.29;;;;;9.30;1.00;;;;;;2280555;60;1915;-88
2021/12/08 00:21:38;1797148.00;5.99;3215.78;250449.00;0.83;432.72;;;;;9.20;1.00;;;;;;2280412;61;1464;-88
2021/12/08 00:24:07;534414.00;1.78;921.10;0.00;0.00;0.62;;;;;8.50;1.00;;;;;;2273212;61;957;-87
2021/12/08 00:26:35;684313.00;2.28;1180.05;0.00;0.00;0.62;;;;;8.00;1.00;;;;;;2273145;61;1156;-87
2021/12/08 00:29:03;646975.00;2.16;1115.40;0.00;0.00;0.62;;;;;7.50;1.00;;;;;;2276450;61;1246;-87
2021/12/08 00:31:30;758721.00;2.53;1309.22;96800.00;0.32;168.05;;;;;7.30;1.00;;;;;;2275576;61;1431;-87
2021/12/08 00:33:57;453601.00;1.51;781.98;0.00;0.00;0.62;;;;;7.50;1.00;;;;;;2268729;61;1133;-86
2021/12/08 00:36:31;543468.00;1.81;936.70;0.00;0.00;0.62;;;;;8.00;1.00;;;;;;2268868;61;1079;-88
2021/12/08 00:38:58;713174.00;2.38;1230.09;0.00;0.00;0.62;;;;;8.40;1.00;;;;;;2267056;61;2004;-88
2021/12/08 00:41:24;880394.00;2.93;1521.71;31948.00;0.11;55.95;;;;;9.00;1.00;;;;;;2266944;61;1461;-88
2021/12/08 00:43:52;1282031.00;4.27;2239.26;222024.00;0.74;383.83;;;;;9.20;1.00;;;;;;2267017;61;1177;-87
2021/12/08 00:46:19;724470.00;2.41;1249.70;95102.00;0.32;165.12;;;;;8.90;1.00;;;;;;2266653;61;1044;-87
2021/12/08 00:48:49;711410.00;2.37;1227.03;0.00;0.00;0.62;;;;;8.30;1.00;;;;;;2260993;61;1153;-88
2021/12/08 00:51:16;579399.00;1.93;998.66;0.00;0.00;0.62;;;;;8.00;1.00;;;;;;2271114;61;1380;-87
2021/12/08 00:53:45;474955.00;1.58;818.72;0.00;0.00;0.62;;;;;8.30;1.00;;;;;;2267715;61;1187;-87
2021/12/08 00:56:13;530727.00;1.77;914.74;624.00;0.00;1.70;;;;;9.10;1.00;;;;;;2268904;61;1146;-87
2021/12/08 00:58:40;1422219.00;4.74;2497.60;135775.00;0.45;235.29;;;;;9.50;1.00;;;;;;2279717;61;1994;-87
2021/12/08 01:01:08;1061398.00;3.54;1841.53;145600.00;0.49;252.22;;;;;10.10;1.00;;;;;;2272311;61;1277;-87
2021/12/08 01:03:35;690820.00;2.30;1191.32;95702.00;0.32;166.15;;;;;9.90;1.00;;;;;;2279629;61;883;-87
2021/12/08 01:06:02;570568.00;1.90;983.43;0.00;0.00;0.62;;;;;9.70;1.00;;;;;;2273072;61;996;-87
2021/12/08 01:08:32;682432.00;2.27;1176.79;0.00;0.00;0.62;;;;;9.50;1.00;;;;;;2276673;61;1083;-87
2021/12/08 01:11:04;471149.00;1.57;812.17;0.00;0.00;0.62;;;;;9.30;1.00;;;;;;2275889;61;1308;-88
2021/12/08 01:13:31;516196.00;1.72;889.71;0.00;0.00;0.62;;;;;8.80;1.00;;;;;;2265934;61;1181;-88
2021/12/08 01:16:01;643416.00;2.14;1109.25;0.00;0.00;0.62;;;;;8.40;1.00;;;;;;2272312;61;1175;-88
2021/12/08 01:18:31;760639.00;2.54;1312.56;0.00;0.00;0.62;;;;;8.30;1.00;;;;;;2269301;61;1079;-87
2021/12/08 01:21:01;809432.00;2.70;1397.58;14921.00;0.05;26.47;;;;;8.40;1.00;;;;;;2275959;61;2007;-88
2021/12/08 01:23:28;473400.00;1.58;816.04;0.00;0.00;0.62;;;;;8.20;1.00;;;;;;2276264;61;1065;-87
2021/12/08 01:25:56;722655.00;2.41;1246.55;26123.00;0.09;45.87;;;;;8.20;1.00;;;;;;2269098;61;1156;-87
2021/12/08 01:28:25;588531.00;1.96;1014.42;0.00;0.00;0.62;;;;;8.10;1.00;;;;;;2276694;61;1120;-87
2021/12/08 01:30:55;617152.00;2.06;1063.85;0.00;0.00;0.62;;;;;8.30;1.00;;;;;;2273181;61;1394;-87
2021/12/08 01:33:23;670948.00;2.24;1156.89;0.00;0.00;0.62;;;;;8.40;1.00;;;;;;2280481;60;1211;-88
2021/12/08 01:35:51;976084.00;3.25;1690.16;30146.00;0.10;52.84;;;;;8.30;1.00;;;;;;2273419;61;1140;-88
2021/12/08 01:38:18;2719715.00;9.07;5222.08;277730.00;0.93;479.63;;;;;8.60;1.00;;;;;;2276765;61;1022;-87
2021/12/08 01:40:46;1613091.00;5.38;2857.78;203963.00;0.68;352.75;;;;;8.50;1.00;;;;;;2271887;61;2019;-87
2021/12/08 01:43:24;1411282.00;4.70;2477.26;189756.00;0.63;328.29;;;;;8.50;1.00;;;;;;2265306;61;1036;-87
2021/12/08 01:46:00;129185888.00;430.62;87355600.00;130888.00;0.44;226.86;;;;;8.90;1.00;;;;;;2268469;61;1070;-88
2021/12/08 01:48:29;718752.00;2.40;1239.77;125261.00;0.42;217.16;;;;;8.90;1.00;;;;;;2268494;61;906;-87
2021/12/08 01:50:59;863632.00;2.88;1492.33;125485.00;0.42;217.54;;;;;9.20;1.00;;;;;;2268386;61;1289;-87
2021/12/08 01:53:26;825054.00;2.75;1424.85;89034.00;0.30;154.64;;;;;9.60;1.00;;;;;;2268165;61;1157;-87
2021/12/08 01:55:53;688947.00;2.30;1188.08;101963.00;0.34;176.96;;;;;9.90;1.00;;;;;;2271382;61;1069;-87
2021/12/08 01:58:21;118008304.00;393.36;66569044.00;103203.00;0.34;179.10;;;;;10.20;1.00;;;;;;2274530;61;1077;-87
2021/12/08 02:00:53;704404.00;2.35;1214.88;94693.00;0.32;164.41;;;;;10.20;1.00;;;;;;2273792;61;2022;-87
2021/12/08 02:03:21;923535.00;3.08;1597.49;83380.00;0.28;144.88;;;;;10.20;1.00;;;;;;2280240;61;1021;-88
2021/12/08 02:05:49;813779.00;2.71;1405.16;0.00;0.00;0.62;;;;;9.90;1.00;;;;;;2280234;61;1132;-87
2021/12/08 02:08:16;580132.00;1.93;999.93;0.00;0.00;0.62;;;;;9.90;1.00;;;;;;2276215;61;1065;-87
2021/12/08 02:10:44;706719.00;2.36;1218.89;0.00;0.00;0.62;;;;;10.20;1.00;;;;;;2276261;61;1328;-88
2021/12/08 02:13:12;526034.00;1.75;906.66;0.00;0.00;0.62;;;;;10.10;1.00;;;;;;2280205;61;1214;-87
2021/12/08 02:15:42;740993.00;2.47;1278.40;0.00;0.00;0.62;;;;;9.90;1.00;;;;;;2276085;61;1093;-87
2021/12/08 02:18:14;595495.00;1.98;1026.44;0.00;0.00;0.62;;;;;10.10;1.00;;;;;;2279967;61;1088;-87
2021/12/08 02:26:11;598198.00;1.99;1031.11;0.00;0.00;0.62;;;;;10.40;1.00;;;;;;2276768;61;1465;-87
2021/12/08 02:28:39;762446.00;2.54;1315.71;60752.00;0.20;105.78;;;;;10.40;1.00;;;;;;2272695;61;1454;-87
2021/12/08 02:31:11;575254.00;1.92;991.51;0.00;0.00;0.62;;;;;10.30;1.00;;;;;;2260722;61;1283;-87
2021/12/08 02:47:32;602780.00;2.01;1039.02;0.00;0.00;0.62;;;;;10.80;1.00;;;;;;2271545;61;655;-87
2021/12/08 02:49:59;639761.00;2.13;1102.93;57138.00;0.19;99.53;;;;;10.80;1.00;;;;;;2266813;61;1691;-87
2021/12/08 02:52:27;1817592.00;6.06;3256.26;245656.00;0.82;424.48;;;;;10.80;1.00;;;;;;2265787;61;1361;-87
2021/12/08 02:54:54;2119440.00;7.06;3872.53;233315.00;0.78;403.25;;;;;10.80;1.00;;;;;;2263390;61;1247;-87
2021/12/08 02:57:27;1255817.00;4.19;2191.47;138643.00;0.46;240.23;;;;;10.90;1.00;;;;;;2266715;61;1057;-87
2021/12/08 02:59:56;724505.00;2.42;1249.76;97045.00;0.32;168.47;;;;;10.80;1.00;;;;;;2263362;61;2022;-87
2021/12/08 03:02:23;677751.00;2.26;1168.68;0.00;0.00;0.62;;;;;10.90;1.00;;;;;;2260003;61;1364;-87
2021/12/08 03:04:50;509268.00;1.70;877.78;0.00;0.00;0.62;;;;;11.00;1.00;;;;;;2266432;61;1078;-87
2021/12/08 03:07:17;350910.00;1.17;605.43;0.00;0.00;0.62;;;;;10.90;1.00;;;;;;2267430;61;1125;-87
2021/12/08 03:09:44;525338.00;1.75;905.46;0.00;0.00;0.62;;;;;10.40;1.00;;;;;;2270735;61;1073;-87
2021/12/08 03:12:11;617704.00;2.06;1064.80;0.00;0.00;0.62;;;;;10.10;1.00;;;;;;2262366;61;1662;-87
2021/12/08 03:14:38;676544.00;2.26;1166.59;0.00;0.00;0.62;;;;;9.90;1.00;;;;;;2262351;61;1244;-87
2021/12/08 03:17:10;698073.00;2.33;1203.90;0.00;0.00;0.62;;;;;9.40;1.00;;;;;;2262644;61;1125;-87
2021/12/08 03:19:37;1020466.00;3.40;1768.75;67645.00;0.23;117.69;;;;;9.00;1.00;;;;;;2253065;61;2002;-87
2021/12/08 03:22:10;648053.00;2.16;1117.27;0.00;0.00;0.62;;;;;8.60;1.00;;;;;;2256096;61;1391;-87
2021/12/08 03:24:39;792118.00;2.64;1367.38;0.00;0.00;0.62;;;;;8.10;1.00;;;;;;2252335;61;1124;-87
2021/12/08 03:27:10;696419.00;2.32;1201.03;8401.00;0.03;15.18;;;;;8.10;1.00;;;;;;2255668;61;1149;-87
2021/12/08 03:29:46;876592.00;2.92;1515.04;0.00;0.00;0.62;;;;;8.20;1.00;;;;;;2257797;61;1054;-87
2021/12/08 03:32:17;771664.00;2.57;1331.75;55288.00;0.18;96.33;;;;;8.90;1.00;;;;;;2271259;61;1403;-87
2021/12/08 03:34:51;1007164.00;3.36;1745.16;62770.00;0.21;109.27;;;;;8.80;1.00;;;;;;2260639;61;1165;-87
2021/12/08 03:37:21;808522.00;2.70;1395.99;44040.00;0.15;76.88;;;;;8.80;1.00;;;;;;2271041;61;1066;-87
2021/12/08 03:39:49;1269497.00;4.23;2216.39;87856.00;0.29;152.61;;;;;9.30;1.00;;;;;;2263483;61;1916;-86
2021/12/08 03:42:16;1045759.00;3.49;1813.69;83879.00;0.28;145.74;;;;;9.60;1.00;;;;;;2270947;61;1339;-87
2021/12/08 03:44:44;2021535.00;6.74;3668.64;164904.00;0.55;285.49;;;;;9.50;1.00;;;;;;2263345;61;1220;-87
2021/12/08 03:47:15;1595950.00;5.32;2825.00;132599.00;0.44;229.81;;;;;9.80;1.00;;;;;;2266795;61;1192;-87
2021/12/08 03:49:46;1602241.00;5.34;2837.02;141717.00;0.47;245.53;;;;;8.80;1.00;;;;;;2260420;61;1213;-87
2021/12/08 03:52:13;1391946.00;4.64;2441.39;115321.00;0.38;200.01;;;;;8.70;1.00;;;;;;2263714;61;1374;-87
2021/12/08 03:54:40;1358125.00;4.53;2378.88;31101.00;0.10;54.49;;;;;8.50;1.00;;;;;;2263566;61;1195;-87
2021/12/08 03:57:08;1411119.00;4.70;2476.96;0.00;0.00;0.62;;;;;8.30;1.00;;;;;;2267143;61;1128;-87
2021/12/08 03:59:35;1644285.00;5.48;2917.68;120648.00;0.40;209.20;;;;;8.60;1.00;;;;;;2270629;61;1994;-87
2021/12/08 04:02:02;1621328.00;5.40;2873.57;211726.00;0.71;366.11;;;;;8.80;1.00;;;;;;2270224;61;1663;-87
2021/12/08 04:04:30;1513635.00;5.05;2668.80;231857.00;0.77;400.74;;;;;9.00;1.00;;;;;;2270630;61;1116;-87
2021/12/08 04:07:02;1655174.00;5.52;2938.66;192749.00;0.64;333.44;;;;;9.40;1.00;;;;;;2270678;61;1120;-87
2021/12/08 04:09:34;1457057.00;4.86;2562.57;164027.00;0.55;283.98;;;;;9.20;1.00;;;;;;2266702;61;1247;-87
2021/12/08 04:12:03;1267103.00;4.22;2212.02;114461.00;0.38;198.53;;;;;9.20;1.00;;;;;;2270741;61;1356;-87
2021/12/08 04:14:35;1542672.00;5.14;2723.67;125122.00;0.42;216.92;;;;;9.40;1.00;;;;;;2263384;61;1061;-87
2021/12/08 04:17:07;1840690.00;6.14;3302.17;168589.00;0.56;291.84;;;;;9.30;1.00;;;;;;2270590;61;1284;-87
2021/12/08 04:19:36;905195.00;3.02;1565.25;107474.00;0.36;186.47;;;;;9.10;1.00;;;;;;2260399;61;2012;-87
2021/12/08 04:22:10;757819.00;2.53;1307.66;96745.00;0.32;167.95;;;;;9.10;1.00;;;;;;2263641;61;1407;-87
2021/12/08 04:24:38;125907312.00;419.69;80865984.00;93635.00;0.31;162.58;;;;;9.50;1.00;;;;;;2270955;61;1082;-87
2021/12/08 04:27:11;568780.00;1.90;980.34;81706.00;0.27;141.98;;;;;9.70;1.00;;;;;;2263829;61;1018;-87
2021/12/08 04:29:41;728598.00;2.43;1256.87;103763.00;0.35;180.07;;;;;9.90;1.00;;;;;;2256137;61;1145;-87
2021/12/08 04:32:13;120404184.00;401.35;70710368.00;0.00;0.00;0.62;;;;;9.60;1.00;;;;;;2258039;61;1451;-87
2021/12/08 04:34:41;582526.00;1.94;1004.06;0.00;0.00;0.62;;;;;9.70;1.00;;;;;;2255015;61;1176;-87
2021/12/08 04:37:18;686055.00;2.29;1183.06;0.00;0.00;0.62;;;;;9.80;1.00;;;;;;2258212;61;1130;-87
2021/12/08 04:39:56;588748.00;1.96;1014.80;0.00;0.00;0.62;;;;;9.70;1.00;;;;;;2258370;61;1930;-87
2021/12/08 04:42:35;647605.00;2.16;1116.49;0.00;0.00;0.62;;;;;9.60;1.00;;;;;;2254512;61;1394;-87
2021/12/08 04:45:10;572475.00;1.91;986.72;0.00;0.00;0.62;;;;;9.00;1.00;;;;;;2252708;61;953;-87
2021/12/08 04:47:50;669200.00;2.23;1153.87;0.00;0.00;0.62;;;;;9.60;1.00;;;;;;2258629;61;1097;-88
2021/12/08 04:50:46;603259.00;2.01;1039.85;0.00;0.00;0.62;;;;;9.40;1.00;;;;;;2263108;61;1097;-88
2021/12/08 04:53:31;803205.00;2.68;1386.71;0.00;0.00;0.62;;;;;9.50;1.00;;;;;;2266457;61;1074;-87
2021/12/08 05:01:55;546133.00;1.82;941.29;0.00;0.00;0.62;;;;;9.80;1.00;;;;;;2271030;61;2004;-87
2021/12/08 05:04:36;704558.00;2.35;1215.14;0.00;0.00;0.62;;;;;9.70;1.00;;;;;;2266324;61;965;-87
2021/12/08 05:07:18;639649.00;2.13;1102.73;0.00;0.00;0.62;;;;;9.40;1.00;;;;;;2259859;61;1057;-87
2021/12/08 05:09:49;628101.00;2.09;1082.77;0.00;0.00;0.62;;;;;9.20;1.00;;;;;;2259724;61;1073;-87
2021/12/08 05:12:19;661317.00;2.20;1140.22;0.00;0.00;0.62;;;;;9.60;1.00;;;;;;2262959;61;1470;-87
2021/12/08 05:14:50;121061584.00;403.54;71875992.00;0.00;0.00;0.62;;;;;9.70;1.00;;;;;;2262712;61;1184;-87
2021/12/08 05:17:24;628536.00;2.10;1083.52;0.00;0.00;0.62;;;;;10.30;1.00;;;;;;2262822;61;1029;-87
2021/12/08 05:19:57;499011.00;1.66;860.12;0.00;0.00;0.62;;;;;10.80;1.00;;;;;;2259499;61;2000;-87
2021/12/08 05:22:29;426352.00;1.42;735.11;0.00;0.00;0.62;;;;;11.00;1.00;;;;;;2267894;61;1405;-87
2021/12/08 05:25:00;1255512.00;4.19;2190.91;131932.00;0.44;228.66;;;;;11.00;1.00;;;;;;2270769;61;1173;-87
2021/12/08 05:27:33;2240802.00;7.47;4131.07;260000.00;0.87;449.15;;;;;11.00;1.00;;;;;;2270455;61;1094;-87
2021/12/08 05:30:04;1680787.00;5.60;2988.15;155262.00;0.52;268.88;;;;;10.50;1.00;;;;;;2266732;61;1236;-87
2021/12/08 05:32:31;1662894.00;5.54;2953.55;158484.00;0.53;274.43;;;;;10.00;1.00;;;;;;2266891;61;1475;-87
2021/12/08 05:34:58;1662238.00;5.54;2952.29;278380.00;0.93;480.75;;;;;10.00;1.00;;;;;;2270340;61;1148;-87
2021/12/08 05:37:27;857131.00;2.86;1480.95;80641.00;0.27;140.14;;;;;10.60;1.00;;;;;;2266373;61;1157;-87
2021/12/08 05:39:57;678760.00;2.26;1170.43;0.00;0.00;0.62;;;;;10.40;1.00;;;;;;2263185;61;1264;-88
2021/12/08 05:42:33;716356.00;2.39;1235.61;0.00;0.00;0.62;;;;;10.40;1.00;;;;;;2263487;61;1382;-88
2021/12/08 05:45:00;533696.00;1.78;919.86;0.00;0.00;0.62;;;;;10.80;1.00;;;;;;2259696;61;1074;-87
2021/12/08 05:47:30;602321.00;2.01;1038.23;0.00;0.00;0.62;;;;;11.10;1.00;;;;;;2263244;61;1089;-87
2021/12/08 05:49:57;518205.00;1.73;893.17;0.00;0.00;0.62;;;;;11.00;1.00;;;;;;2265635;61;1070;-87
2021/12/08 05:52:25;624860.00;2.08;1077.16;0.00;0.00;0.62;;;;;11.10;1.00;;;;;;2259280;61;1503;-87
2021/12/08 05:54:53;1920296.00;6.40;3461.93;326884.00;1.09;564.13;;;;;10.60;1.00;;;;;;2259956;61;1260;-87
2021/12/08 05:57:25;1427034.00;4.76;2506.56;203494.00;0.68;351.94;;;;;10.50;1.00;;;;;;2266352;61;1141;-87
2021/12/08 05:59:53;705077.00;2.35;1216.04;95748.00;0.32;166.23;;;;;10.60;1.00;;;;;;2265052;61;1121;-87
2021/12/08 06:02:28;560027.00;1.87;965.25;12679.00;0.04;22.59;;;;;10.80;1.00;;;;;;2263026;61;1952;-87
2021/12/08 06:04:56;537142.00;1.79;925.80;0.00;0.00;0.62;;;;;11.30;1.00;;;;;;2266198;61;1081;-87
2021/12/08 06:07:23;537483.00;1.79;926.39;0.00;0.00;0.62;;;;;11.50;1.00;;;;;;2257355;61;1228;-87
2021/12/08 06:09:52;640575.00;2.14;1104.33;0.00;0.00;0.62;;;;;11.30;1.00;;;;;;2270706;61;1195;-87
2021/12/08 06:12:20;675926.00;2.25;1165.52;5928.00;0.02;10.89;;;;;10.90;1.00;;;;;;2263651;61;1307;-87
2021/12/08 06:14:53;549287.00;1.83;946.73;0.00;0.00;0.62;;;;;10.90;1.00;;;;;;2263983;61;1164;-87
2021/12/08 06:17:20;2129543.00;7.10;3893.80;375051.00;1.25;646.92;;;;;10.70;1.00;;;;;;2263766;61;1283;-87
2021/12/08 06:19:48;1838219.00;6.13;3297.25;203299.00;0.68;351.60;;;;;10.50;1.00;;;;;;2271122;61;1064;-87
2021/12/08 06:22:18;709841.00;2.37;1224.31;95326.00;0.32;165.50;;;;;10.30;1.00;;;;;;2263795;61;2015;-87
2021/12/08 06:24:46;942247.00;3.14;1630.44;97391.00;0.32;169.07;;;;;10.30;1.00;;;;;;2270724;61;1057;-87
2021/12/08 06:27:14;823964.00;2.75;1422.95;88158.00;0.29;153.13;;;;;9.90;1.00;;;;;;2270677;61;1144;-87
2021/12/08 06:29:43;857403.00;2.86;1481.43;98635.00;0.33;171.22;;;;;9.90;1.00;;;;;;2266996;61;1267;-87
2021/12/08 06:32:12;920934.00;3.07;1592.92;96650.00;0.32;167.79;;;;;9.70;1.00;;;;;;2270460;61;1409;-87
2021/12/08 06:34:42;654261.00;2.18;1128.01;103696.00;0.35;179.95;;;;;10.10;1.00;;;;;;2266661;61;1169;-87
2021/12/08 06:37:13;611151.00;2.04;1053.48;89230.00;0.30;154.98;;;;;10.20;1.00;;;;;;2270771;61;1115;-87
2021/12/08 06:39:45;858896.00;2.86;1484.04;102505.00;0.34;177.90;;;;;10.40;1.00;;;;;;2263563;61;1088;-87
2021/12/08 06:42:16;720603.00;2.40;1242.99;100496.00;0.33;174.43;;;;;10.40;1.00;;;;;;2270877;61;2003;-87
2021/12/08 06:44:48;940480.00;3.13;1627.33;134852.00;0.45;233.70;;;;;10.70;1.00;;;;;;2270910;61;1137;-88
2021/12/08 06:47:23;620938.00;2.07;1070.39;98205.00;0.33;170.47;;;;;10.60;1.00;;;;;;2262429;61;1112;-87
2021/12/08 06:49:53;750444.00;2.50;1294.83;97327.00;0.32;168.96;;;;;10.20;1.00;;;;;;2262671;61;1140;-87
2021/12/08 06:52:23;658212.00;2.19;1134.85;0.00;0.00;0.62;;;;;9.90;1.00;;;;;;2256396;61;1399;-86
2021/12/08 06:54:53;781693.00;2.61;1349.21;35265.00;0.12;61.70;;;;;9.80;1.00;;;;;;2260270;61;1061;-87
2021/12/08 06:57:23;891101.00;2.97;1540.50;0.00;0.00;0.62;;;;;10.10;1.00;;;;;;2263480;61;1002;-87
2021/12/08 06:59:58;723852.00;2.41;1248.63;0.00;0.00;0.62;;;;;10.60;1.00;;;;;;2257884;61;1014;-87
2021/12/08 07:02:52;704528.00;2.35;1215.09;0.00;0.00;0.62;;;;;10.80;1.00;;;;;;2257518;61;2026;-87
2021/12/08 07:05:29;758828.00;2.53;1309.41;0.00;0.00;0.62;;;;;11.00;1.00;;;;;;2261544;61;1125;-87
2021/12/08 07:08:00;691880.00;2.31;1193.16;0.00;0.00;0.62;;;;;10.90;1.00;;;;;;2266179;61;1169;-87
2021/12/08 07:10:32;776865.00;2.59;1340.81;0.00;0.00;0.62;;;;;11.10;1.00;;;;;;2265928;61;1338;-87
2021/12/08 07:13:04;670232.00;2.23;1155.65;0.00;0.00;0.62;;;;;11.00;1.00;;;;;;2259281;61;1145;-87
2021/12/08 07:15:40;618464.00;2.06;1066.11;0.00;0.00;0.62;;;;;11.00;1.00;;;;;;2265736;61;1086;-87
2021/12/08 07:18:11;653259.00;2.18;1126.28;14723.00;0.05;26.13;;;;;10.90;1.00;;;;;;2269095;61;1110;-87
2021/12/08 07:20:45;781242.00;2.60;1348.43;0.00;0.00;0.62;;;;;10.90;1.00;;;;;;2270559;61;1928;-87
2021/12/08 07:23:19;831493.00;2.77;1436.10;13419.00;0.04;23.87;;;;;10.60;1.00;;;;;;2263636;61;1054;-87
2021/12/08 07:25:49;698593.00;2.33;1204.80;0.00;0.00;0.62;;;;;9.60;1.00;;;;;;2263744;61;1085;-87
2021/12/08 07:28:18;834468.00;2.78;1441.30;0.00;0.00;0.62;;;;;9.20;1.00;;;;;;2260404;61;1062;-87
2021/12/08 07:30:51;680968.00;2.27;1174.25;0.00;0.00;0.62;;;;;8.90;1.00;;;;;;2263967;61;1312;-88
2021/12/08 07:33:18;1253829.00;4.18;2187.85;73800.00;0.25;128.33;;;;;8.90;1.00;;;;;;2268319;61;1035;-87
2021/12/08 07:35:49;887769.00;2.96;1534.65;0.00;0.00;0.62;;;;;9.10;1.00;;;;;;2272149;61;948;-88
2021/12/08 07:38:19;767055.00;2.56;1323.73;0.00;0.00;0.62;;;;;9.30;1.00;;;;;;2267495;61;1039;-88
2021/12/08 07:40:52;719555.00;2.40;1241.17;0.00;0.00;0.62;;;;;10.10;1.00;;;;;;2264148;61;2008;-87
2021/12/08 07:43:23;691918.00;2.31;1193.23;0.00;0.00;0.62;;;;;10.50;1.00;;;;;;2267509;61;1139;-87
2021/12/08 07:46:02;771867.00;2.57;1332.10;0.00;0.00;0.62;;;;;10.50;1.00;;;;;;2267536;61;1118;-87
2021/12/08 07:48:34;769386.00;2.56;1327.78;0.00;0.00;0.62;;;;;10.40;1.00;;;;;;2260758;61;974;-88
2021/12/08 07:51:07;419219.00;1.40;722.85;0.00;0.00;0.62;;;;;10.40;1.00;;;;;;2267559;61;1360;-88
2021/12/08 07:53:34;453685.00;1.51;782.12;0.00;0.00;0.62;;;;;10.50;1.00;;;;;;2257631;61;970;-88
2021/12/08 07:56:05;645250.00;2.15;1112.42;0.00;0.00;0.62;;;;;10.50;1.00;;;;;;2269357;61;1008;-88
2021/12/08 07:58:34;567131.00;1.89;977.50;0.00;0.00;0.62;;;;;10.50;1.00;;;;;;2265096;61;929;-88
2021/12/08 08:01:07;533188.00;1.78;918.98;0.00;0.00;0.62;;;;;10.70;1.00;;;;;;2261699;61;2006;-88
2021/12/08 08:03:35;570078.00;1.90;982.58;0.00;0.00;0.62;;;;;10.50;1.00;;;;;;2268157;61;1074;-88
2021/12/08 08:06:07;737619.00;2.46;1272.54;24762.00;0.08;43.52;;;;;10.00;1.00;;;;;;2264979;61;1012;-88
2021/12/08 08:08:35;686687.00;2.29;1184.16;0.00;0.00;0.62;;;;;9.60;1.00;;;;;;2268901;61;949;-88
2021/12/08 08:11:06;765904.00;2.55;1321.72;0.00;0.00;0.62;;;;;9.40;1.00;;;;;;2268248;61;1469;-89
2021/12/08 08:13:33;671452.00;2.24;1157.77;0.00;0.00;0.62;;;;;9.30;1.00;;;;;;2268347;61;1011;-87
2021/12/08 08:16:05;671341.00;2.24;1157.58;0.00;0.00;0.62;;;;;9.40;1.00;;;;;;2267978;61;974;-87
2021/12/08 08:18:33;616763.00;2.06;1063.17;0.00;0.00;0.62;;;;;9.90;1.00;;;;;;2264438;61;1039;-88
2021/12/08 08:21:06;876118.00;2.92;1514.21;1540.00;0.01;3.29;;;;;10.60;1.00;;;;;;2271434;61;2000;-87
2021/12/08 08:23:34;700690.00;2.34;1208.44;0.00;0.00;0.62;;;;;11.30;1.00;;;;;;2271924;61;1137;-87
2021/12/08 08:31:36;836657.00;2.79;1445.13;0.00;0.00;0.62;;;;;10.70;1.00;;;;;;2264861;61;1418;-87
2021/12/08 08:35:04;598581.00;2.00;1031.77;0.00;0.00;0.62;;;;;10.50;1.00;;;;;;2256806;61;1443;-87
2021/12/08 08:38:01;806828.00;2.69;1393.03;0.00;0.00;0.62;;;;;10.40;1.00;;;;;;2256624;61;1254;-87
2021/12/08 08:47:07;;;;;;;;;;;;;;;;;;;;;
2021/12/08 08:49:59;869443.00;2.90;1502.51;92347.00;0.31;160.36;;;;;11.30;1.00;;;;;;2243445;61;1263;-86
2021/12/08 08:52:35;776329.00;2.59;1339.87;109615.00;0.37;190.17;;;;;11.60;1.00;;;;;;2250067;61;1572;-88
2021/12/08 08:55:17;775683.00;2.59;1338.75;0.00;0.00;0.62;;;;;11.70;1.00;;;;;;2248094;61;987;-85
2021/12/08 08:58:03;;;;;;;;;;;;;;;;;;;;;
2021/12/08 09:00:40;700412.00;2.33;1207.95;0.00;0.00;0.62;;;;;11.10;1.00;;;;;;2235033;62;1309;-88
2021/12/08 09:03:41;;;;;;;;;;;;;;;;;;;;;
2021/12/08 09:06:43;;;;;;;;;;;;;;;;;;;;;
2021/12/08 09:09:44;865473.00;2.88;1495.56;0.00;0.00;0.62;;;;;11.40;1.00;;;;;;2227021;62;1051;-89
2021/12/08 09:12:49;838115.00;2.79;1447.68;107572.00;0.36;186.64;;;;;11.60;1.00;;;;;;2223006;62;1297;-88
2021/12/08 09:15:25;740848.00;2.47;1278.15;0.00;0.00;0.62;;;;;11.80;1.00;;;;;;2225640;62;1142;-87
2021/12/08 09:21:21;623227.00;2.08;1074.34;0.00;0.00;0.62;;;;;11.70;1.00;;;;;;2245423;61;1739;-87
2021/12/08 09:24:21;582510.00;1.94;1004.03;0.00;0.00;0.62;;;;;11.50;1.00;;;;;;2262828;61;1149;-86
2021/12/08 09:27:01;612781.00;2.04;1056.29;0.00;0.00;0.62;;;;;11.30;1.00;;;;;;2256730;61;988;-89
2021/12/08 09:30:00;774940.00;2.58;1337.45;0.00;0.00;0.62;;;;;11.00;1.00;;;;;;2257836;61;1215;-88
2021/12/08 09:32:59;960059.00;3.20;1661.86;81841.00;0.27;142.22;;;;;11.10;1.00;;;;;;2260810;61;1364;-88
2021/12/08 09:35:38;864612.00;2.88;1494.05;97461.00;0.32;169.19;;;;;11.30;1.00;;;;;;2265178;61;1062;-88
2021/12/08 09:38:14;863758.00;2.88;1492.55;94807.00;0.32;164.61;;;;;11.30;1.00;;;;;;2264932;61;1583;-88
2021/12/08 09:40:47;967664.00;3.23;1675.28;62737.00;0.21;109.21;;;;;11.20;1.00;;;;;;2268323;61;1601;-86
2021/12/08 09:43:20;685358.00;2.28;1181.86;0.00;0.00;0.62;;;;;11.20;1.00;;;;;;2262911;61;2009;-87
2021/12/08 09:46:00;950515.00;3.17;1645.02;116697.00;0.39;202.38;;;;;11.20;1.00;;;;;;2257979;61;1173;-87
2021/12/08 09:48:30;916206.00;3.05;1584.60;63675.00;0.21;110.83;;;;;10.90;1.00;;;;;;2258973;61;1143;-87
2021/12/08 09:51:00;865740.00;2.89;1496.03;0.00;0.00;0.62;;;;;11.00;1.00;;;;;;2258570;61;1437;-87
2021/12/08 09:53:33;841263.00;2.80;1453.18;0.00;0.00;0.62;;;;;11.20;1.00;;;;;;2258762;61;1236;-87
2021/12/08 09:56:04;759965.00;2.53;1311.39;0.00;0.00;0.62;;;;;11.60;1.00;;;;;;2258865;61;1143;-87
2021/12/08 09:58:35;665511.00;2.22;1147.48;0.00;0.00;0.62;;;;;11.80;1.00;;;;;;2259275;61;1155;-87
2021/12/08 10:01:04;560035.00;1.87;965.26;0.00;0.00;0.62;;;;;11.80;1.00;;;;;;2253759;61;1439;-87
2021/12/08 10:03:43;632987.00;2.11;1091.21;0.00;0.00;0.62;;;;;11.90;1.00;;;;;;2263271;61;1974;-88
2021/12/08 10:06:13;620433.00;2.07;1069.51;0.00;0.00;0.62;;;;;12.10;1.00;;;;;;2255181;61;1078;-87
2021/12/08 10:08:42;531398.00;1.77;915.90;0.00;0.00;0.62;;;;;12.10;1.00;;;;;;2255177;61;1125;-88
2021/12/08 10:11:11;495978.00;1.65;854.90;0.00;0.00;0.62;;;;;12.20;1.00;;;;;;2254732;61;1408;-87
2021/12/08 10:13:49;;;;;;;;;;;;;;;;;;;;;
2021/12/08 10:16:16;805109.00;2.68;1390.04;0.00;0.00;0.62;;;;;11.90;1.00;;;;;;2245099;61;1188;-87
2021/12/08 10:18:50;752811.00;2.51;1298.95;0.00;0.00;0.62;;;;;11.40;1.00;;;;;;2254932;61;1169;-87
2021/12/08 10:21:19;682420.00;2.27;1176.77;0.00;0.00;0.62;;;;;11.60;1.00;;;;;;2254673;61;1305;-88
2021/12/08 10:23:49;576866.00;1.92;994.29;0.00;0.00;0.62;;;;;11.20;1.00;;;;;;2250700;61;1930;-87
2021/12/08 10:26:19;708997.00;2.36;1222.84;0.00;0.00;0.62;;;;;11.10;1.00;;;;;;2263577;61;1184;-87
2021/12/08 10:28:48;731137.00;2.44;1261.28;0.00;0.00;0.62;;;;;10.90;1.00;;;;;;2263416;61;1127;-87
2021/12/08 10:31:19;445028.00;1.48;767.23;0.00;0.00;0.62;;;;;11.00;1.00;;;;;;2255880;61;1324;-87
2021/12/08 10:33:56;645781.00;2.15;1113.34;0.00;0.00;0.62;;;;;10.60;1.00;;;;;;2263897;61;1128;-87
2021/12/08 10:39:28;778762.00;2.60;1344.11;0.00;0.00;0.62;;;;;10.70;1.00;;;;;;2259714;61;1143;-87
2021/12/08 10:42:08;549208.00;1.83;946.59;0.00;0.00;0.62;;;;;10.80;1.00;;;;;;2256341;61;2007;-87
2021/12/08 10:44:43;762955.00;2.54;1316.59;0.00;0.00;0.62;;;;;11.10;1.00;;;;;;2263741;61;1068;-87
2021/12/08 10:47:11;485859.00;1.62;837.48;0.00;0.00;0.62;;;;;10.60;1.00;;;;;;2259529;61;1172;-87
2021/12/08 10:55:26;615880.00;2.05;1061.65;0.00;0.00;0.62;;;;;10.90;1.00;;;;;;2264064;61;708;-87
2021/12/08 10:58:06;615987.00;2.05;1061.83;0.00;0.00;0.62;;;;;11.00;1.00;;;;;;2259229;61;1265;-87
2021/12/08 11:00:40;681108.00;2.27;1174.49;11196.00;0.04;20.02;;;;;11.00;1.00;;;;;;2259436;61;1435;-87